Time;durP1;ratioP1;P1;durP2;ratioP2;P2;SDS_P1;SDS_P2;PMS_P1;PMS_P2;Temp;Humidity;BMP_temperature;BMP_pressure;BME280_temperature;BME280_humidity;BME280_pressure;Samples;Min_cycle;Max_cycle;Signal;HPM_P1;HPM_P2
2023/12/03 00:03:04;;;;;;;33.30;18.10;;;;;-0.20;101399.00;;;;10066595;29;20231;-83
2023/12/03 00:08:06;;;;;;;34.67;18.93;;;;;-0.20;101398.00;;;;10047138;29;20272;-84
2023/12/03 00:13:07;;;;;;;33.90;19.33;;;;;-0.30;101409.00;;;;10070919;29;20234;-83
2023/12/03 00:18:09;;;;;;;35.57;20.33;;;;;-0.30;101406.00;;;;10075349;29;20255;-83
2023/12/03 00:23:10;;;;;;;34.73;18.17;;;;;-0.30;101409.00;;;;10065879;29;20243;-85
2023/12/03 00:28:11;;;;;;;34.83;19.20;;;;;-0.30;101407.00;;;;10053168;29;20247;-83
2023/12/03 00:33:12;;;;;;;32.17;17.93;;;;;-0.30;101396.00;;;;10057971;29;20246;-83
2023/12/03 00:38:14;;;;;;;33.40;18.60;;;;;-0.40;101407.00;;;;10060540;29;20259;-83
2023/12/03 00:43:15;;;;;;;38.80;19.27;;;;;-0.50;101404.00;;;;10082918;29;20861;-83
2023/12/03 00:48:16;;;;;;;39.03;18.53;;;;;-0.50;101404.00;;;;10071305;29;20480;-82
2023/12/03 00:53:18;;;;;;;38.93;18.73;;;;;-0.60;101401.00;;;;10059477;29;20231;-83
2023/12/03 00:58:19;;;;;;;40.50;19.77;;;;;-0.70;101403.00;;;;10073405;29;20268;-89
2023/12/03 01:03:20;;;;;;;40.20;19.03;;;;;-0.80;101405.00;;;;10112070;29;20230;-88
2023/12/03 01:08:21;;;;;;;36.93;19.17;;;;;-0.90;101398.00;;;;10084045;29;20232;-87
2023/12/03 01:13:23;;;;;;;38.57;17.57;;;;;-1.00;101404.00;;;;10074087;29;20861;-87
2023/12/03 01:18:24;;;;;;;36.87;18.00;;;;;-1.00;101406.00;;;;10078531;29;20742;-85
2023/12/03 01:23:25;;;;;;;37.93;18.03;;;;;-1.10;101407.00;;;;10090845;29;20257;-85
2023/12/03 01:28:26;;;;;;;39.80;19.47;;;;;-1.20;101423.00;;;;10080749;29;20244;-87
2023/12/03 01:33:29;;;;;;;38.20;19.23;;;;;-1.20;101418.00;;;;10084522;29;20234;-88
2023/12/03 01:38:30;;;;;;;43.83;18.37;;;;;-1.20;101421.00;;;;10076132;29;20242;-88
2023/12/03 01:43:31;;;;;;;41.13;19.17;;;;;-1.20;101412.00;;;;10095203;29;20231;-89
2023/12/03 01:48:32;;;;;;;39.63;20.13;;;;;-1.10;101415.00;;;;10079577;29;20235;-87
2023/12/03 01:53:35;;;;;;;42.13;19.10;;;;;-1.10;101422.00;;;;10091575;29;20746;-88
2023/12/03 01:58:36;;;;;;;53.50;19.57;;;;;-1.10;101439.00;;;;10072494;29;20240;-88
2023/12/03 02:03:37;;;;;;;38.37;18.83;;;;;-1.10;101431.00;;;;10081713;29;20224;-86
2023/12/03 02:08:38;;;;;;;41.73;19.37;;;;;-1.20;101433.00;;;;10071524;29;20247;-84
2023/12/03 02:13:40;;;;;;;43.70;19.97;;;;;-1.20;101437.00;;;;10069289;29;20243;-83
2023/12/03 02:18:41;;;;;;;35.67;19.37;;;;;-1.20;101439.00;;;;10071496;29;20240;-84
2023/12/03 02:23:43;;;;;;;41.63;18.87;;;;;-1.30;101437.00;;;;10070645;29;20234;-84
2023/12/03 02:28:44;;;;;;;40.60;19.23;;;;;-1.40;101436.00;;;;10049925;29;20326;-84
2023/12/03 02:33:54;;;;;;;40.77;19.90;;;;;-1.50;101423.00;;;;10046440;29;20224;-83
2023/12/03 02:38:56;;;;;;;41.50;20.93;;;;;-1.50;101423.00;;;;10051601;29;20288;-83
2023/12/03 02:43:57;;;;;;;49.33;19.90;;;;;-1.50;101426.00;;;;10076277;29;20944;-84
2023/12/03 02:48:58;;;;;;;50.80;21.37;;;;;-1.60;101421.00;;;;10060081;29;20310;-84
2023/12/03 02:54:00;;;;;;;38.17;18.67;;;;;-1.70;101413.00;;;;10052247;29;20894;-84
2023/12/03 02:59:01;;;;;;;46.60;20.23;;;;;-1.80;101412.00;;;;10066978;29;20983;-83
2023/12/03 03:04:03;;;;;;;45.37;20.73;;;;;-1.80;101412.00;;;;10057510;29;20655;-83
2023/12/03 03:09:04;;;;;;;43.97;19.47;;;;;-1.80;101412.00;;;;10062326;29;20318;-83
2023/12/03 03:14:05;;;;;;;44.73;20.63;;;;;-1.90;101415.00;;;;10073791;29;20225;-84
2023/12/03 03:19:06;;;;;;;41.20;19.77;;;;;-1.90;101415.00;;;;10055270;29;20243;-81
2023/12/03 03:24:08;;;;;;;43.13;19.97;;;;;-1.80;101406.00;;;;10057306;29;20267;-82
2023/12/03 03:29:09;;;;;;;45.00;20.13;;;;;-1.80;101416.00;;;;10075824;29;20227;-79
2023/12/03 03:34:10;;;;;;;41.03;18.93;;;;;-1.80;101419.00;;;;10052286;29;20231;-78
2023/12/03 03:39:12;;;;;;;44.77;20.80;;;;;-1.80;101424.00;;;;10069927;29;20234;-79
2023/12/03 03:44:13;;;;;;;46.87;21.30;;;;;-1.80;101422.00;;;;10070338;29;20227;-81
2023/12/03 03:49:14;;;;;;;44.97;20.17;;;;;-1.80;101419.00;;;;10085995;29;20237;-78
2023/12/03 03:54:16;;;;;;;49.40;19.53;;;;;-1.80;101427.00;;;;10069680;29;20231;-80
2023/12/03 03:59:17;;;;;;;44.10;20.63;;;;;-1.80;101426.00;;;;10052808;29;20737;-80
2023/12/03 04:04:18;;;;;;;46.07;20.43;;;;;-1.80;101428.00;;;;10067518;29;20329;-78
2023/12/03 04:09:19;;;;;;;43.47;20.57;;;;;-1.80;101420.00;;;;10080255;29;20277;-80
2023/12/03 04:14:20;;;;;;;47.13;22.03;;;;;-1.70;101411.00;;;;10077933;29;20521;-80
2023/12/03 04:19:22;;;;;;;43.80;20.30;;;;;-1.70;101407.00;;;;10078617;29;20239;-80
2023/12/03 04:24:23;;;;;;;51.37;19.90;;;;;-1.60;101402.00;;;;10070446;29;20258;-79
2023/12/03 04:29:24;;;;;;;50.93;21.83;;;;;-1.60;101407.00;;;;10068604;29;20797;-81
2023/12/03 04:34:25;;;;;;;52.03;21.10;;;;;-1.50;101406.00;;;;10066790;29;20295;-81
2023/12/03 04:39:27;;;;;;;48.53;21.57;;;;;-1.50;101414.00;;;;10056672;29;20319;-81
2023/12/03 04:44:32;;;;;;;43.57;21.67;;;;;-1.50;101421.00;;;;10070760;29;20242;-82
2023/12/03 04:49:34;;;;;;;43.20;19.10;;;;;-1.50;101420.00;;;;10077068;29;20384;-81
2023/12/03 04:54:35;;;;;;;48.80;21.73;;;;;-1.50;101426.00;;;;10048554;29;20315;-82
2023/12/03 04:59:36;;;;;;;43.07;20.77;;;;;-1.40;101435.00;;;;10053787;29;20250;-82
2023/12/03 05:04:37;;;;;;;46.50;19.40;;;;;-1.40;101442.00;;;;10089039;29;20254;-82
2023/12/03 05:09:39;;;;;;;47.80;21.00;;;;;-1.50;101434.00;;;;10075307;29;20232;-81
2023/12/03 05:14:41;;;;;;;41.53;19.17;;;;;-1.50;101446.00;;;;10100200;29;20305;-81
2023/12/03 05:19:43;;;;;;;46.73;21.23;;;;;-1.50;101451.00;;;;10061766;29;20235;-82
2023/12/03 05:24:45;;;;;;;47.50;19.27;;;;;-1.60;101449.00;;;;10067281;29;20347;-82
2023/12/03 05:29:46;;;;;;;48.00;21.53;;;;;-1.60;101460.00;;;;10070138;29;20234;-82
2023/12/03 05:34:48;;;;;;;39.80;18.50;;;;;-1.60;101452.00;;;;10069887;29;20314;-81
2023/12/03 05:39:49;;;;;;;40.57;19.13;;;;;-1.50;101456.00;;;;10068705;29;20232;-80
2023/12/03 05:44:50;;;;;;;42.13;20.43;;;;;-1.50;101447.00;;;;10051289;29;20238;-80
2023/12/03 05:49:52;;;;;;;40.70;18.50;;;;;-1.50;101457.00;;;;10058553;29;20314;-80
2023/12/03 05:54:54;;;;;;;46.50;19.77;;;;;-1.50;101451.00;;;;10070952;29;20886;-80
2023/12/03 05:59:55;;;;;;;39.67;18.87;;;;;-1.40;101444.00;;;;10089826;29;20821;-80
2023/12/03 06:04:56;;;;;;;39.07;16.47;;;;;-1.40;101450.00;;;;10054434;29;20243;-79
2023/12/03 06:09:58;;;;;;;40.30;18.50;;;;;-1.40;101448.00;;;;10066215;29;20224;-80
2023/12/03 06:14:59;;;;;;;47.23;19.43;;;;;-1.40;101437.00;;;;10062560;29;20274;-83
2023/12/03 06:20:01;;;;;;;38.90;18.77;;;;;-1.40;101439.00;;;;10100069;29;20265;-80
2023/12/03 06:25:04;;;;;;;40.13;18.30;;;;;-1.40;101437.00;;;;10075554;29;20227;-80
2023/12/03 06:30:06;;;;;;;38.03;16.97;;;;;-1.40;101438.00;;;;10065385;29;20238;-79
2023/12/03 06:35:08;;;;;;;37.40;16.83;;;;;-1.40;101439.00;;;;10070725;29;20287;-80
2023/12/03 06:40:10;;;;;;;40.33;17.47;;;;;-1.30;101449.00;;;;10077904;29;20256;-79
2023/12/03 06:45:13;;;;;;;37.80;18.63;;;;;-1.40;101447.00;;;;10063998;29;20303;-80
2023/12/03 06:50:15;;;;;;;37.77;18.03;;;;;-1.40;101450.00;;;;10070411;29;20322;-80
2023/12/03 06:55:16;;;;;;;40.67;17.07;;;;;-1.40;101441.00;;;;10054528;29;20262;-80
2023/12/03 07:00:17;;;;;;;35.93;17.90;;;;;-1.30;101431.00;;;;10081744;29;20235;-79
2023/12/03 07:05:19;;;;;;;33.07;16.10;;;;;-1.30;101435.00;;;;10087136;29;20224;-81
2023/12/03 07:10:20;;;;;;;35.53;16.27;;;;;-1.30;101445.00;;;;10075394;29;20228;-81
2023/12/03 07:15:21;;;;;;;33.93;15.60;;;;;-1.30;101443.00;;;;10053013;29;20232;-80
2023/12/03 07:20:23;;;;;;;37.27;17.63;;;;;-1.30;101456.00;;;;10073107;29;20351;-80
2023/12/03 07:25:24;;;;;;;33.80;15.87;;;;;-1.20;101453.00;;;;10057698;29;20322;-83
2023/12/03 07:30:25;;;;;;;43.40;19.33;;;;;-1.10;101457.00;;;;10066585;29;20227;-80
2023/12/03 07:35:26;;;;;;;35.43;17.10;;;;;-1.10;101462.00;;;;10062216;29;20235;-81
2023/12/03 07:40:27;;;;;;;35.77;17.00;;;;;-1.00;101467.00;;;;10064895;29;20224;-80
2023/12/03 07:45:28;;;;;;;33.97;14.90;;;;;-0.90;101458.00;;;;10075857;29;20255;-81
2023/12/03 07:50:30;;;;;;;32.00;16.23;;;;;-0.80;101471.00;;;;10063862;29;20702;-80
2023/12/03 07:55:31;;;;;;;37.67;14.67;;;;;-0.70;101476.00;;;;10083227;29;20895;-85
2023/12/03 08:00:32;;;;;;;38.53;18.00;;;;;-0.60;101475.00;;;;10050084;29;20239;-84
2023/12/03 08:05:33;;;;;;;33.53;15.17;;;;;-0.50;101477.00;;;;10068455;29;20869;-84
2023/12/03 08:10:34;;;;;;;31.40;14.40;;;;;-0.40;101479.00;;;;10072779;29;20228;-85
2023/12/03 08:15:36;;;;;;;37.57;16.73;;;;;-0.40;101474.00;;;;10057584;29;20845;-84
2023/12/03 08:20:37;;;;;;;29.87;15.00;;;;;-0.30;101479.00;;;;10055204;29;20896;-84
2023/12/03 08:25:38;;;;;;;33.87;16.30;;;;;-0.20;101495.00;;;;10068034;29;20223;-85
2023/12/03 08:30:39;;;;;;;32.23;15.90;;;;;-0.10;101482.00;;;;10069412;29;20231;-84
2023/12/03 08:35:41;;;;;;;28.23;13.70;;;;;0.00;101488.00;;;;10074653;29;20242;-84
2023/12/03 08:40:42;;;;;;;33.37;16.20;;;;;0.10;101483.00;;;;10071050;29;20239;-85
2023/12/03 08:45:43;;;;;;;34.80;14.23;;;;;0.10;101494.00;;;;10076215;29;20231;-84
2023/12/03 08:50:45;;;;;;;33.97;16.60;;;;;0.20;101494.00;;;;10058103;29;20230;-84
2023/12/03 08:55:46;;;;;;;26.37;12.67;;;;;0.40;101492.00;;;;10072022;29;20235;-85
2023/12/03 09:00:48;;;;;;;31.27;15.60;;;;;0.50;101489.00;;;;10075647;29;20227;-85
2023/12/03 09:05:49;;;;;;;30.50;15.53;;;;;0.60;101481.00;;;;10086389;29;20284;-85
2023/12/03 09:10:50;;;;;;;29.33;15.10;;;;;0.70;101478.00;;;;10065024;29;20266;-84
2023/12/03 09:15:52;;;;;;;28.90;14.20;;;;;0.80;101465.00;;;;10089627;29;20261;-86
2023/12/03 09:20:53;;;;;;;28.23;14.27;;;;;0.90;101473.00;;;;10087287;29;20266;-86
2023/12/03 09:25:54;;;;;;;28.10;15.03;;;;;1.00;101469.00;;;;10072248;29;20244;-87
2023/12/03 09:30:58;;;;;;;27.93;13.03;;;;;1.20;101458.00;;;;10060625;29;20235;-86
2023/12/03 09:36:00;;;;;;;23.87;12.43;;;;;1.30;101474.00;;;;10059731;29;20261;-86
2023/12/03 09:41:08;;;;;;;27.17;14.20;;;;;1.50;101468.00;;;;10076549;29;20232;-84
2023/12/03 09:46:12;;;;;;;27.00;13.03;;;;;1.50;101462.00;;;;10061669;29;20230;-85
2023/12/03 09:51:15;;;;;;;23.07;12.40;;;;;1.60;101461.00;;;;10086170;29;20257;-86
2023/12/03 09:56:16;;;;;;;20.03;11.47;;;;;1.60;101470.00;;;;10067778;29;20315;-85
2023/12/03 10:01:23;;;;;;;24.10;11.67;;;;;1.70;101466.00;;;;10056266;29;20886;-84
2023/12/03 10:06:25;;;;;;;27.50;12.33;;;;;1.80;101467.00;;;;10073933;29;20764;-85
2023/12/03 10:11:28;;;;;;;25.13;12.37;;;;;1.90;101476.00;;;;10074668;29;20291;-86
2023/12/03 10:16:29;;;;;;;26.13;12.60;;;;;1.90;101471.00;;;;10063569;29;20227;-89
2023/12/03 10:21:31;;;;;;;27.27;14.07;;;;;2.10;101465.00;;;;10088387;29;20239;-87
2023/12/03 10:26:32;;;;;;;26.87;13.97;;;;;2.20;101441.00;;;;10068904;29;20223;-87
2023/12/03 10:31:34;;;;;;;24.33;11.87;;;;;2.10;101444.00;;;;10079224;29;20230;-85
2023/12/03 10:36:37;;;;;;;22.83;11.13;;;;;2.10;101440.00;;;;10081637;29;20830;-87
2023/12/03 10:41:39;;;;;;;27.90;14.83;;;;;2.20;101418.00;;;;10115254;29;20220;-90
2023/12/03 10:46:41;;;;;;;25.47;12.47;;;;;2.40;101416.00;;;;10077832;29;20235;-89
2023/12/03 10:51:43;;;;;;;23.80;12.87;;;;;2.50;101418.00;;;;10091009;29;20313;-86
2023/12/03 10:56:49;;;;;;;19.77;10.27;;;;;2.40;101416.00;;;;10093707;29;20315;-88
2023/12/03 11:01:54;;;;;;;24.70;12.97;;;;;2.40;101426.00;;;;10107405;29;20223;-83
2023/12/03 11:06:58;;;;;;;24.40;13.87;;;;;2.50;101423.00;;;;10426310;23;20223;-88
2023/12/03 11:12:01;;;;;;;22.57;12.20;;;;;2.50;101412.00;;;;10158504;24;20232;-89
2023/12/03 11:17:14;;;;;;;19.83;9.83;;;;;2.50;101411.00;;;;10100952;29;20212;-89
2023/12/03 11:22:34;;;;;;;23.90;12.87;;;;;2.60;101398.00;;;;10095908;29;20236;-88
2023/12/03 11:27:40;;;;;;;25.93;11.90;;;;;2.70;101397.00;;;;10076043;29;20231;-84
2023/12/03 11:32:41;;;;;;;21.57;10.53;;;;;2.90;101399.00;;;;10064672;29;20315;-86
2023/12/03 11:37:49;;;;;;;25.03;12.53;;;;;3.10;101390.00;;;;10056712;29;20493;-85
2023/12/03 11:42:50;;;;;;;22.27;11.17;;;;;3.10;101388.00;;;;10069442;29;20811;-84
2023/12/03 11:48:05;;;;;;;21.17;12.37;;;;;3.00;101382.00;;;;10053830;29;20239;-84
2023/12/03 11:53:09;;;;;;;20.60;10.67;;;;;2.70;101384.00;;;;10056220;29;20587;-84
2023/12/03 11:58:10;;;;;;;23.37;12.50;;;;;2.50;101379.00;;;;10073254;29;20333;-84
2023/12/03 12:03:11;;;;;;;21.63;11.43;;;;;2.40;101374.00;;;;10047293;29;20259;-85
2023/12/03 12:08:19;;;;;;;23.87;13.40;;;;;2.40;101361.00;;;;10056335;29;20250;-84
2023/12/03 12:13:25;;;;;;;21.20;12.00;;;;;2.50;101357.00;;;;10093095;29;20237;-85
2023/12/03 12:18:27;;;;;;;22.10;11.43;;;;;2.60;101356.00;;;;10065915;29;20278;-85
2023/12/03 12:23:29;;;;;;;22.13;12.00;;;;;2.60;101357.00;;;;10075305;29;20235;-85
2023/12/03 12:28:32;;;;;;;21.60;10.83;;;;;2.40;101366.00;;;;10058301;29;20231;-85
2023/12/03 12:33:36;;;;;;;23.33;11.33;;;;;2.10;101365.00;;;;10085885;29;20298;-85
2023/12/03 12:38:42;;;;;;;20.10;10.23;;;;;1.90;101343.00;;;;10064781;29;20263;-81
2023/12/03 12:43:55;;;;;;;21.43;11.80;;;;;2.00;101338.00;;;;10066815;29;20232;-80
2023/12/03 12:49:16;;;;;;;22.63;12.10;;;;;2.00;101315.00;;;;10061519;29;20235;-80
2023/12/03 12:54:19;;;;;;;22.50;12.53;;;;;2.10;101317.00;;;;10068473;29;20277;-80
2023/12/03 12:59:22;;;;;;;24.63;10.67;;;;;2.10;101320.00;;;;10036543;29;20630;-80
2023/12/03 13:04:24;;;;;;;15.90;10.47;;;;;2.10;101303.00;;;;10070746;29;20270;-80
2023/12/03 13:09:28;;;;;;;21.73;11.03;;;;;2.10;101287.00;;;;10078098;29;20227;-81
2023/12/03 13:14:32;;;;;;;21.13;10.53;;;;;2.10;101286.00;;;;10068512;29;20237;-82
2023/12/03 13:19:35;;;;;;;22.93;12.13;;;;;2.10;101273.00;;;;10069270;29;20994;-81
2023/12/03 13:24:38;;;;;;;21.97;11.63;;;;;1.90;101268.00;;;;10084805;29;20243;-82
2023/12/03 13:29:41;;;;;;;25.83;12.90;;;;;1.80;101260.00;;;;10064417;29;20231;-80
2023/12/03 13:34:43;;;;;;;25.20;13.23;;;;;1.70;101244.00;;;;10053635;29;20223;-80
2023/12/03 13:39:46;;;;;;;25.33;13.63;;;;;1.60;101229.00;;;;10103597;29;20243;-82
2023/12/03 13:44:48;;;;;;;27.30;12.63;;;;;1.60;101222.00;;;;10061432;29;20235;-80
2023/12/03 13:49:49;;;;;;;25.87;12.73;;;;;1.70;101201.00;;;;10075822;29;20259;-80
2023/12/03 13:54:50;;;;;;;21.13;11.33;;;;;1.70;101207.00;;;;10069572;29;20251;-79
2023/12/03 13:59:51;;;;;;;22.33;11.20;;;;;1.80;101200.00;;;;10069844;29;20228;-82
2023/12/03 14:04:53;;;;;;;25.90;10.93;;;;;1.70;101204.00;;;;10068108;29;20240;-79
2023/12/03 14:10:11;;;;;;;22.17;11.50;;;;;1.70;101203.00;;;;10081121;29;20629;-80
2023/12/03 14:15:13;;;;;;;20.30;10.93;;;;;1.70;101191.00;;;;10049878;29;20234;-80
2023/12/03 14:20:14;;;;;;;18.77;9.93;;;;;1.70;101181.00;;;;10081858;29;20730;-88
2023/12/03 14:25:15;;;;;;;25.20;11.80;;;;;1.70;101174.00;;;;10070835;29;20227;-85
2023/12/03 14:30:17;;;;;;;21.67;11.77;;;;;1.60;101174.00;;;;10075710;29;20232;-86
2023/12/03 14:35:18;;;;;;;22.73;11.73;;;;;1.60;101168.00;;;;10063619;29;20227;-88
2023/12/03 14:40:20;;;;;;;23.10;12.00;;;;;1.60;101162.00;;;;10076189;29;20235;-86
2023/12/03 14:45:21;;;;;;;22.97;10.77;;;;;1.60;101155.00;;;;10074458;29;20236;-86
2023/12/03 14:50:22;;;;;;;19.60;9.83;;;;;1.60;101151.00;;;;10060495;29;20712;-86
2023/12/03 14:55:23;;;;;;;20.47;10.73;;;;;1.50;101155.00;;;;10067154;29;20239;-87
2023/12/03 15:00:27;;;;;;;21.33;11.73;;;;;1.50;101134.00;;;;10074497;29;20690;-88
2023/12/03 15:05:28;;;;;;;19.57;11.00;;;;;1.40;101143.00;;;;10356116;23;20299;-88
2023/12/03 15:11:08;;;;;;;24.80;12.27;;;;;1.40;101145.00;;;;10401043;23;20283;31
2023/12/03 15:16:16;;;;;;;24.17;10.63;;;;;1.40;101140.00;;;;10423771;23;20422;-92
2023/12/03 15:21:50;;;;;;;21.47;10.97;;;;;1.30;101137.00;;;;3066167;24;20231;-87
2023/12/03 15:26:51;;;;;;;21.60;11.20;;;;;1.10;101136.00;;;;10380693;24;20559;-87
2023/12/03 15:31:53;;;;;;;14.87;7.50;;;;;1.00;101139.00;;;;10142034;28;20226;-88
2023/12/03 15:36:54;;;;;;;23.90;10.80;;;;;0.90;101130.00;;;;10219647;23;20240;-88
2023/12/03 15:41:55;;;;;;;20.67;10.77;;;;;0.80;101134.00;;;;10080223;29;20219;-87
2023/12/03 15:46:56;;;;;;;22.37;11.40;;;;;0.70;101136.00;;;;10077100;29;20232;-87
2023/12/03 15:51:58;;;;;;;25.07;12.00;;;;;0.60;101129.00;;;;10071747;29;20356;-86
2023/12/03 15:57:27;;;;;;;22.37;11.63;;;;;0.50;101113.00;;;;8216510;23;20434;-84
2023/12/03 16:02:28;;;;;;;20.40;11.33;;;;;0.50;101124.00;;;;3073570;24;20219;-85
2023/12/03 16:07:42;;;;;;;21.50;10.80;;;;;0.40;101119.00;;;;11511377;23;20254;31
2023/12/03 16:13:12;;;;;;;22.93;11.13;;;;;0.40;101116.00;;;;11514436;23;20215;31
2023/12/03 16:30:24;;;;;;;24.90;11.77;;;;;0.30;101070.00;;;;11502047;23;20271;-86
2023/12/03 16:35:26;;;;;;;20.70;10.60;;;;;0.40;101075.00;;;;10130324;24;20237;-87
2023/12/03 16:40:31;;;;;;;20.33;10.23;;;;;0.40;101059.00;;;;9997068;29;20846;-79
2023/12/03 16:45:33;;;;;;;20.13;10.37;;;;;0.40;101054.00;;;;10006939;29;20237;-82
2023/12/03 16:50:34;;;;;;;20.30;9.93;;;;;0.40;101056.00;;;;10002984;29;20233;-80
2023/12/03 16:55:35;;;;;;;20.03;10.47;;;;;0.40;101044.00;;;;10009971;29;20691;-81
2023/12/03 17:00:36;;;;;;;18.80;10.60;;;;;0.40;101032.00;;;;9987857;29;20867;-80
2023/12/03 17:05:38;;;;;;;21.23;10.57;;;;;0.50;101037.00;;;;10008220;29;20233;-80
2023/12/03 17:10:39;;;;;;;21.87;12.30;;;;;0.50;101033.00;;;;9998269;29;20262;-81
2023/12/03 17:15:40;;;;;;;20.57;10.30;;;;;0.50;101026.00;;;;10013580;29;20240;-80
2023/12/03 17:20:42;;;;;;;22.37;11.30;;;;;0.40;101026.00;;;;9996018;29;20287;-81
2023/12/03 17:25:43;;;;;;;25.17;11.40;;;;;0.50;101013.00;;;;9986007;29;20233;-80
2023/12/03 17:30:47;;;;;;;21.23;9.23;;;;;0.50;101000.00;;;;9996775;29;20655;-81
2023/12/03 17:35:49;;;;;;;20.37;10.07;;;;;0.50;100999.00;;;;9998900;29;20238;-80
2023/12/03 17:40:50;;;;;;;20.67;11.10;;;;;0.50;100983.00;;;;9995708;29;20641;-80
2023/12/03 17:45:53;;;;;;;21.53;11.40;;;;;0.60;100976.00;;;;9994658;29;20267;-78
2023/12/03 17:50:54;;;;;;;19.37;10.37;;;;;0.60;100984.00;;;;9998686;29;20237;-79
2023/12/03 17:55:57;;;;;;;20.60;11.30;;;;;0.60;100990.00;;;;9991413;29;20232;-79
2023/12/03 18:00:58;;;;;;;19.03;9.43;;;;;0.60;100984.00;;;;10001459;29;20260;-79
2023/12/03 18:06:03;;;;;;;22.43;11.60;;;;;0.70;100985.00;;;;9981922;29;20237;-79
2023/12/03 18:11:04;;;;;;;18.07;10.13;;;;;0.70;100974.00;;;;9980034;29;20241;-78
2023/12/03 18:16:09;;;;;;;23.13;10.53;;;;;0.70;100959.00;;;;9986052;29;20226;-79
2023/12/03 18:21:10;;;;;;;17.40;10.47;;;;;0.70;100951.00;;;;10004873;29;21015;-78
2023/12/03 18:26:11;;;;;;;18.57;9.73;;;;;0.70;100944.00;;;;10007391;29;20233;-78
2023/12/03 18:31:19;;;;;;;21.77;10.70;;;;;0.70;100935.00;;;;9977570;29;20285;-80
2023/12/03 18:36:20;;;;;;;21.23;10.87;;;;;0.70;100937.00;;;;9994538;29;20298;-77
2023/12/03 18:41:22;;;;;;;19.23;9.67;;;;;0.80;100934.00;;;;9988164;29;20230;-79
2023/12/03 18:46:23;;;;;;;17.77;9.53;;;;;0.80;100935.00;;;;10008327;29;20313;-78
2023/12/03 18:51:25;;;;;;;18.77;9.50;;;;;0.80;100931.00;;;;9996635;29;20871;-78
2023/12/03 18:56:26;;;;;;;19.47;10.80;;;;;0.80;100919.00;;;;9994179;29;20245;-80
2023/12/03 19:01:27;;;;;;;19.40;10.17;;;;;0.80;100909.00;;;;9998530;29;20304;-79
2023/12/03 19:06:28;;;;;;;17.57;9.60;;;;;0.80;100920.00;;;;9994900;29;20775;-80
2023/12/03 19:11:31;;;;;;;17.57;9.60;;;;;0.80;100920.00;;;;9989656;29;22017;-79
2023/12/03 19:16:32;;;;;;;19.83;10.47;;;;;0.80;100924.00;;;;9970937;29;20812;-79
2023/12/03 19:21:34;;;;;;;16.97;9.67;;;;;0.90;100922.00;;;;9989998;29;20700;-79
2023/12/03 19:26:36;;;;;;;15.33;8.80;;;;;0.90;100922.00;;;;9993723;29;20232;-79
2023/12/03 19:31:46;;;;;;;20.20;10.17;;;;;1.00;100924.00;;;;10006736;29;20316;-79
2023/12/03 19:36:48;;;;;;;18.23;9.60;;;;;1.00;100924.00;;;;9993631;29;20234;-78
2023/12/03 19:41:49;;;;;;;18.67;10.57;;;;;1.00;100925.00;;;;9988989;29;20229;-80
2023/12/03 19:46:52;;;;;;;16.93;9.20;;;;;1.10;100919.00;;;;9992853;29;20325;-79
2023/12/03 19:51:56;;;;;;;17.50;9.03;;;;;1.10;100919.00;;;;9995061;29;20682;-79
2023/12/03 19:56:59;;;;;;;15.97;9.03;;;;;1.20;100899.00;;;;9989769;29;20249;-79
2023/12/03 20:02:01;;;;;;;15.90;9.27;;;;;1.20;100892.00;;;;9982206;29;20245;-79
2023/12/03 20:07:03;;;;;;;16.33;8.93;;;;;1.30;100900.00;;;;10006535;29;20249;-80
2023/12/03 20:12:05;;;;;;;19.33;8.93;;;;;1.30;100893.00;;;;10009929;29;20234;-79
2023/12/03 20:17:06;;;;;;;15.90;8.60;;;;;1.40;100891.00;;;;10007997;29;20361;-79
2023/12/03 20:22:07;;;;;;;12.80;5.43;;;;;1.40;100885.00;;;;9991252;29;20231;-80
2023/12/03 20:27:08;;;;;;;14.60;7.57;;;;;1.30;100872.00;;;;9988432;29;20229;-79
2023/12/03 20:32:09;;;;;;;16.37;9.07;;;;;1.30;100868.00;;;;10012772;29;20244;-81
2023/12/03 20:37:11;;;;;;;15.27;7.93;;;;;1.20;100835.00;;;;10012781;29;20745;-80
2023/12/03 20:42:13;;;;;;;14.33;7.80;;;;;1.20;100822.00;;;;10012504;29;20300;-80
2023/12/03 20:47:14;;;;;;;13.53;7.73;;;;;1.20;100822.00;;;;9998756;29;20233;-80
2023/12/03 20:52:16;;;;;;;14.17;8.60;;;;;1.20;100807.00;;;;10009538;29;20344;-81
2023/12/03 20:57:17;;;;;;;16.13;9.33;;;;;1.10;100823.00;;;;10013048;29;20385;-79
2023/12/03 21:02:18;;;;;;;12.20;7.20;;;;;1.10;100824.00;;;;10012903;29;20230;-79
2023/12/03 21:07:19;;;;;;;15.67;8.00;;;;;1.10;100798.00;;;;10014071;29;20230;-81
2023/12/03 21:12:21;;;;;;;13.97;7.53;;;;;1.10;100803.00;;;;10015138;29;20230;-80
2023/12/03 21:17:22;;;;;;;13.30;8.30;;;;;1.10;100805.00;;;;10014012;29;20774;-82
2023/12/03 21:22:23;;;;;;;15.27;7.60;;;;;1.10;100794.00;;;;9993672;29;20648;-82
2023/12/03 21:27:24;;;;;;;15.30;8.00;;;;;1.10;100793.00;;;;9980368;29;20241;-82
2023/12/03 21:32:27;;;;;;;11.87;6.90;;;;;1.20;100793.00;;;;9999460;29;20225;-81
2023/12/03 21:37:29;;;;;;;9.70;6.70;;;;;1.20;100779.00;;;;9991633;29;20245;-82
2023/12/03 21:42:31;;;;;;;13.70;8.00;;;;;1.20;100776.00;;;;9984934;29;20441;-82
2023/12/03 21:47:33;;;;;;;13.53;7.10;;;;;1.20;100779.00;;;;9995006;29;20872;-82
2023/12/03 21:52:35;;;;;;;13.90;7.37;;;;;1.30;100769.00;;;;9986083;29;20319;-82
2023/12/03 21:57:36;;;;;;;10.97;6.70;;;;;1.40;100768.00;;;;9994584;29;20313;-83
2023/12/03 22:02:37;;;;;;;12.57;7.20;;;;;1.40;100758.00;;;;9981290;29;20244;-83
2023/12/03 22:07:39;;;;;;;18.20;8.23;;;;;1.50;100750.00;;;;9978473;29;20252;-82
2023/12/03 22:12:40;;;;;;;12.40;7.87;;;;;1.50;100742.00;;;;10009708;29;20263;-83
2023/12/03 22:17:41;;;;;;;13.73;7.70;;;;;1.50;100728.00;;;;9997931;29;20237;-82
2023/12/03 22:22:46;;;;;;;12.63;6.70;;;;;1.50;100730.00;;;;9994690;29;20955;-83
2023/12/03 22:27:51;;;;;;;14.57;7.33;;;;;1.50;100712.00;;;;9910224;29;20229;-84
2023/12/03 22:33:02;;;;;;;15.47;8.37;;;;;1.50;100716.00;;;;9955959;29;20267;-82
2023/12/03 22:38:18;;;;;;;10.47;6.50;;;;;1.50;100712.00;;;;9964193;29;20292;-83
2023/12/03 22:43:20;;;;;;;13.37;7.37;;;;;1.50;100712.00;;;;9953400;29;20234;-85
2023/12/03 22:48:21;;;;;;;10.67;6.30;;;;;1.50;100714.00;;;;9975460;29;20241;-85
2023/12/03 22:53:23;;;;;;;13.43;7.63;;;;;1.50;100702.00;;;;9974253;29;20229;-83
2023/12/03 22:58:26;;;;;;;14.00;7.07;;;;;1.60;100706.00;;;;9899308;29;20237;-84
2023/12/03 23:03:32;;;;;;;11.77;6.17;;;;;1.60;100695.00;;;;9954289;29;20639;-83
2023/12/03 23:08:46;;;;;;;13.00;6.97;;;;;1.60;100683.00;;;;9902124;29;20229;-84
2023/12/03 23:14:00;;;;;;;12.27;7.23;;;;;1.70;100696.00;;;;9927238;29;20621;-84
2023/12/03 23:19:11;;;;;;;12.97;6.80;;;;;1.60;100689.00;;;;9847627;29;20257;-84
2023/12/03 23:24:25;;;;;;;10.00;5.47;;;;;1.70;100702.00;;;;9839803;29;20265;-84
2023/12/03 23:29:39;;;;;;;11.43;7.03;;;;;1.70;100692.00;;;;9829522;29;20580;-85
2023/12/03 23:34:55;;;;;;;11.83;6.63;;;;;1.70;100679.00;;;;9830521;29;20323;-84
2023/12/03 23:40:04;;;;;;;11.47;5.90;;;;;1.80;100664.00;;;;9861241;29;20320;-84
2023/12/03 23:45:22;;;;;;;9.40;6.17;;;;;1.80;100659.00;;;;9840410;29;20249;-83
2023/12/03 23:50:25;;;;;;;12.63;7.30;;;;;1.80;100657.00;;;;9939548;29;20238;-84
2023/12/03 23:55:28;;;;;;;11.13;5.73;;;;;1.70;100645.00;;;;9940664;29;20527;-84
